createdAt,value
2023-05-14T00:02:09.007Z,14.82
2023-05-14T00:04:36.024Z,15.00
2023-05-14T00:07:02.979Z,14.07
2023-05-14T00:09:30.499Z,17.17
2023-05-14T00:11:57.307Z,16.05
2023-05-14T00:14:24.443Z,15.00
2023-05-14T00:16:51.348Z,14.73
2023-05-14T00:19:18.281Z,17.45
2023-05-14T00:21:45.575Z,17.10
2023-05-14T00:24:12.600Z,14.93
2023-05-14T00:26:39.448Z,16.15
2023-05-14T00:29:07.195Z,19.35
2023-05-14T00:31:34.827Z,18.05
2023-05-14T00:34:03.049Z,15.32
2023-05-14T00:36:29.887Z,17.75
2023-05-14T00:38:56.785Z,17.25
2023-05-14T00:41:23.890Z,18.17
2023-05-14T00:43:51.554Z,16.83
2023-05-14T00:46:18.438Z,17.85
2023-05-14T00:48:45.723Z,14.82
2023-05-14T00:51:12.806Z,17.08
2023-05-14T00:53:39.977Z,17.08
2023-05-14T00:56:08.287Z,15.70
2023-05-14T00:58:35.524Z,17.45
2023-05-14T01:01:02.399Z,15.70
2023-05-14T01:03:31.882Z,16.02
2023-05-14T01:06:13.903Z,16.48
2023-05-14T01:09:06.262Z,13.65
2023-05-14T01:11:39.865Z,16.55
2023-05-14T01:14:25.706Z,17.52
2023-05-14T01:16:56.797Z,18.30
2023-05-14T01:19:41.054Z,15.60
2023-05-14T01:22:08.412Z,17.60
2023-05-14T01:24:36.111Z,17.63
2023-05-14T01:27:23.392Z,15.93
2023-05-14T01:30:03.080Z,17.58
2023-05-14T01:32:31.167Z,17.33
2023-05-14T01:35:00.414Z,18.35
2023-05-14T01:37:30.115Z,16.83
2023-05-14T01:39:59.018Z,17.58
2023-05-14T01:42:26.944Z,17.48
2023-05-14T01:44:54.377Z,15.55
2023-05-14T01:47:21.298Z,18.67
2023-05-14T01:49:48.966Z,18.73
2023-05-14T01:52:17.106Z,17.58
2023-05-14T01:54:44.152Z,17.70
2023-05-14T01:57:10.972Z,16.63
2023-05-14T01:59:37.971Z,18.00
2023-05-14T02:02:04.949Z,18.40
2023-05-14T02:04:31.764Z,18.02
2023-05-14T02:06:58.708Z,18.05
2023-05-14T02:09:25.698Z,17.90
2023-05-14T02:11:52.493Z,16.90
2023-05-14T02:14:19.317Z,17.48
2023-05-14T02:16:46.601Z,16.65
2023-05-14T02:19:13.743Z,16.35
2023-05-14T02:21:40.642Z,15.98
2023-05-14T02:24:07.425Z,16.30
2023-05-14T02:26:34.850Z,18.17
2023-05-14T02:29:01.614Z,17.17
2023-05-14T02:31:28.890Z,16.13
2023-05-14T02:33:55.705Z,19.30
2023-05-14T02:36:22.646Z,16.88
2023-05-14T02:38:49.414Z,16.88
2023-05-14T02:41:16.577Z,18.17
2023-05-14T02:43:43.501Z,16.30
2023-05-14T02:46:10.746Z,17.55
2023-05-14T02:48:37.917Z,16.02
2023-05-14T02:51:07.880Z,16.42
2023-05-14T02:53:34.868Z,16.42
2023-05-14T02:56:01.795Z,16.98
2023-05-14T02:58:29.005Z,18.23
2023-05-14T03:00:56.341Z,18.48
2023-05-14T03:03:23.782Z,18.17
2023-05-14T03:05:51.974Z,17.92
2023-05-14T03:08:19.063Z,16.45
2023-05-14T03:10:46.032Z,17.77
2023-05-14T03:13:13.866Z,17.58
2023-05-14T03:15:40.612Z,19.25
2023-05-14T03:18:07.442Z,18.33
2023-05-14T03:20:34.255Z,17.40
2023-05-14T03:23:01.700Z,18.38
2023-05-14T03:25:28.821Z,19.67
2023-05-14T03:27:55.714Z,18.35
2023-05-14T03:30:22.915Z,19.45
2023-05-14T03:32:50.476Z,15.73
2023-05-14T03:35:17.576Z,16.38
2023-05-14T03:37:44.333Z,15.90
2023-05-14T03:40:12.087Z,15.77
2023-05-14T03:42:38.932Z,16.70
2023-05-14T03:45:07.471Z,15.82
2023-05-14T03:47:34.539Z,15.32
2023-05-14T03:50:01.506Z,17.33
2023-05-14T03:52:28.227Z,15.15
2023-05-14T03:54:54.990Z,15.25
2023-05-14T03:57:21.770Z,15.45
2023-05-14T03:59:48.532Z,13.73
2023-05-14T04:02:15.614Z,17.10
2023-05-14T04:04:42.449Z,16.25
2023-05-14T04:07:09.299Z,15.30
2023-05-14T04:09:36.619Z,15.68
2023-05-14T04:12:03.838Z,14.38
2023-05-14T04:14:31.095Z,14.93
2023-05-14T04:16:59.541Z,14.55
2023-05-14T04:19:27.304Z,14.23
2023-05-14T04:21:54.122Z,13.50
2023-05-14T04:24:21.292Z,16.35
2023-05-14T04:26:48.581Z,13.88
2023-05-14T04:29:15.852Z,13.90
2023-05-14T04:31:43.155Z,13.80
2023-05-14T04:34:10.085Z,14.75
2023-05-14T04:36:37.076Z,14.10
2023-05-14T04:39:04.146Z,14.43
2023-05-14T04:41:31.013Z,14.25
2023-05-14T04:44:00.796Z,14.70
2023-05-14T04:46:28.282Z,16.15
2023-05-14T04:48:56.416Z,14.20
2023-05-14T04:51:23.566Z,17.73
2023-05-14T04:53:50.311Z,13.30
2023-05-14T04:56:17.237Z,13.98
2023-05-14T04:58:44.113Z,15.05
2023-05-14T05:01:11.162Z,14.85
2023-05-14T05:03:37.971Z,12.68
2023-05-14T05:06:05.079Z,12.27
2023-05-14T05:08:31.866Z,12.77
2023-05-14T05:10:58.787Z,12.32
2023-05-14T05:13:25.620Z,12.48
2023-05-14T05:15:53.020Z,14.50
2023-05-14T05:18:19.934Z,14.77
2023-05-14T05:20:46.717Z,14.00
2023-05-14T05:23:13.552Z,13.07
2023-05-14T05:25:40.429Z,14.30
2023-05-14T05:28:07.226Z,13.23
2023-05-14T05:30:34.189Z,14.27
2023-05-14T05:33:01.165Z,14.27
2023-05-14T05:35:28.214Z,13.35
2023-05-14T05:37:55.057Z,15.57
2023-05-14T05:40:22.055Z,14.73
2023-05-14T05:42:48.988Z,14.48
2023-05-14T05:45:15.990Z,15.18
2023-05-14T05:47:42.994Z,15.82
2023-05-14T05:50:10.899Z,20.50
2023-05-14T05:52:38.170Z,19.60
2023-05-14T05:55:05.449Z,17.00
2023-05-14T05:57:32.248Z,17.30
2023-05-14T05:59:59.048Z,17.20
2023-05-14T06:02:26.085Z,15.85
2023-05-14T06:04:53.219Z,17.80
2023-05-14T06:07:20.126Z,17.23
2023-05-14T06:09:46.911Z,17.85
2023-05-14T06:12:13.660Z,17.20
2023-05-14T06:14:40.447Z,19.60
2023-05-14T06:17:07.543Z,18.58
2023-05-14T06:19:34.335Z,16.48
2023-05-14T06:22:01.208Z,15.60
2023-05-14T06:24:27.993Z,16.85
2023-05-14T06:26:54.862Z,15.23
2023-05-14T06:29:21.831Z,18.55
2023-05-14T06:31:48.904Z,16.90
2023-05-14T06:34:15.761Z,15.63
2023-05-14T06:36:42.524Z,18.05
2023-05-14T06:39:09.941Z,13.75
2023-05-14T06:41:36.712Z,17.02
2023-05-14T06:44:03.690Z,14.50
2023-05-14T06:46:30.436Z,12.82
2023-05-14T06:48:59.338Z,13.25
2023-05-14T06:51:26.487Z,16.52
2023-05-14T06:53:55.136Z,14.75
2023-05-14T06:56:24.886Z,13.27
2023-05-14T06:58:51.658Z,12.70
2023-05-14T07:01:18.428Z,12.43
2023-05-14T07:03:45.624Z,14.05
2023-05-14T07:06:13.669Z,13.32
2023-05-14T07:08:40.836Z,12.60
2023-05-14T07:11:07.710Z,14.05
2023-05-14T07:13:34.639Z,14.25
2023-05-14T07:16:01.546Z,12.85
2023-05-14T07:18:28.837Z,11.10
2023-05-14T07:20:55.658Z,12.02
2023-05-14T07:23:22.687Z,10.35
2023-05-14T07:25:49.985Z,10.20
2023-05-14T07:28:16.823Z,9.20
2023-05-14T07:30:43.664Z,9.75
2023-05-14T07:33:10.673Z,9.38
2023-05-14T07:35:37.512Z,10.10
2023-05-14T07:38:05.795Z,11.65
2023-05-14T07:40:32.560Z,9.95
2023-05-14T07:42:59.429Z,9.80
2023-05-14T07:45:26.295Z,10.82
2023-05-14T07:47:53.183Z,9.25
2023-05-14T07:50:20.096Z,9.80
2023-05-14T07:52:46.908Z,9.00
2023-05-14T07:55:13.774Z,8.35
2023-05-14T07:57:40.807Z,10.45
2023-05-14T08:00:08.241Z,10.38
2023-05-14T08:02:42.548Z,10.00
2023-05-14T08:05:10.091Z,9.85
2023-05-14T08:07:36.841Z,11.98
2023-05-14T08:10:04.271Z,10.02
2023-05-14T08:12:31.777Z,12.02
2023-05-14T08:14:58.671Z,10.77
2023-05-14T08:17:25.534Z,10.60
2023-05-14T08:19:53.651Z,11.90
2023-05-14T08:22:20.610Z,10.93
2023-05-14T08:24:47.798Z,13.85
2023-05-14T08:27:14.653Z,10.50
2023-05-14T08:29:41.611Z,11.75
2023-05-14T08:32:22.127Z,11.73
2023-05-14T08:34:50.926Z,11.40
2023-05-14T08:37:17.753Z,10.85
2023-05-14T08:39:44.737Z,10.93
2023-05-14T08:42:13.888Z,10.52
2023-05-14T08:44:50.054Z,10.13
2023-05-14T08:47:18.823Z,10.18
2023-05-14T08:49:49.603Z,11.32
2023-05-14T08:52:18.064Z,11.85
2023-05-14T08:54:46.733Z,10.82
2023-05-14T08:57:14.359Z,11.35
2023-05-14T08:59:41.375Z,13.25
2023-05-14T09:02:11.866Z,10.38
2023-05-14T09:04:39.767Z,9.73
2023-05-14T09:07:07.856Z,9.73
2023-05-14T09:09:35.166Z,10.57
2023-05-14T09:12:02.259Z,10.15
2023-05-14T09:14:28.992Z,9.27
2023-05-14T09:16:57.115Z,9.43
2023-05-14T09:19:24.275Z,9.55
2023-05-14T09:21:51.360Z,8.65
2023-05-14T09:24:23.050Z,8.70
2023-05-14T09:26:53.848Z,12.32
2023-05-14T09:29:21.101Z,15.05
2023-05-14T09:31:51.761Z,9.82
2023-05-14T09:34:30.721Z,9.00
2023-05-14T09:36:59.300Z,8.63
2023-05-14T09:39:26.880Z,8.75
2023-05-14T09:41:53.903Z,8.25
2023-05-14T09:44:21.066Z,7.80
2023-05-14T09:46:48.804Z,9.10
2023-05-14T09:49:16.136Z,8.10
2023-05-14T09:51:43.005Z,8.55
2023-05-14T09:54:10.130Z,9.38
2023-05-14T09:56:38.103Z,8.50
2023-05-14T09:59:05.757Z,11.25
2023-05-14T10:01:33.597Z,9.95
2023-05-14T10:04:02.288Z,8.23
2023-05-14T10:06:33.637Z,9.05
2023-05-14T10:09:05.708Z,7.72
2023-05-14T10:11:37.140Z,8.70
2023-05-14T10:14:36.064Z,8.50
2023-05-14T10:17:04.885Z,8.70
2023-05-14T10:19:35.350Z,7.50
2023-05-14T10:22:10.034Z,7.65
2023-05-14T10:24:39.074Z,6.85
2023-05-14T10:27:06.558Z,8.13
2023-05-14T10:29:37.913Z,8.30
2023-05-14T10:32:06.962Z,7.10
2023-05-14T10:34:46.657Z,7.00
2023-05-14T10:37:24.763Z,6.95
2023-05-14T10:39:58.793Z,6.60
2023-05-14T10:42:40.888Z,6.60
2023-05-14T10:45:13.358Z,6.40
2023-05-14T10:47:43.409Z,7.80
2023-05-14T10:50:14.107Z,6.03
2023-05-14T10:52:43.381Z,5.80
2023-05-14T10:55:13.931Z,5.53
2023-05-14T10:57:43.921Z,5.05
2023-05-14T11:00:12.563Z,4.70
2023-05-14T11:02:44.301Z,5.35
2023-05-14T11:05:15.611Z,5.38
2023-05-14T11:07:52.625Z,5.50
2023-05-14T11:10:21.761Z,6.07
2023-05-14T11:12:50.854Z,4.70
2023-05-14T11:15:23.186Z,5.07
2023-05-14T11:17:51.207Z,4.30
2023-05-14T11:20:19.067Z,5.65
2023-05-14T11:22:48.253Z,9.73
2023-05-14T11:25:15.629Z,4.72
2023-05-14T11:27:44.884Z,5.93
2023-05-14T11:30:21.733Z,5.30
2023-05-14T11:32:49.965Z,4.95
2023-05-14T11:35:18.071Z,5.43
2023-05-14T11:37:51.462Z,4.75
2023-05-14T11:40:18.658Z,5.25
2023-05-14T11:42:45.792Z,5.32
2023-05-14T11:45:13.787Z,6.00
2023-05-14T11:47:43.943Z,6.63
2023-05-14T11:50:11.213Z,6.25
2023-05-14T11:52:41.717Z,6.63
2023-05-14T11:55:12.796Z,5.95
2023-05-14T11:57:40.952Z,7.20
2023-05-14T12:00:16.938Z,4.57
2023-05-14T12:02:43.971Z,4.82
2023-05-14T12:05:13.267Z,5.03
2023-05-14T12:07:40.535Z,4.15
2023-05-14T12:10:08.005Z,4.82
2023-05-14T12:12:37.156Z,4.38
2023-05-14T12:15:12.637Z,3.58
2023-05-14T12:17:39.829Z,3.85
2023-05-14T12:20:11.000Z,4.97
2023-05-14T12:22:38.654Z,3.92
2023-05-14T12:25:12.590Z,5.15
2023-05-14T12:27:39.617Z,4.28
2023-05-14T12:32:40.978Z,4.72
2023-05-14T12:35:08.754Z,4.47
2023-05-14T12:37:37.324Z,4.72
2023-05-14T12:40:09.086Z,5.85
2023-05-14T12:42:36.466Z,4.40
2023-05-14T12:45:07.082Z,4.13
2023-05-14T12:47:34.325Z,3.90
2023-05-14T12:50:01.358Z,4.38
2023-05-14T12:52:37.642Z,3.97
2023-05-14T12:55:07.169Z,3.75
2023-05-14T12:57:35.498Z,3.78
2023-05-14T13:00:06.889Z,4.50
2023-05-14T13:02:42.895Z,4.13
2023-05-14T13:05:13.852Z,3.70
2023-05-14T13:07:41.198Z,4.60
2023-05-14T13:10:08.630Z,4.50
2023-05-14T13:12:35.543Z,4.35
2023-05-14T13:15:02.537Z,4.97
2023-05-14T13:17:29.519Z,4.97
2023-05-14T13:19:56.375Z,3.85
2023-05-14T13:22:23.153Z,4.55
2023-05-14T13:24:50.540Z,3.30
2023-05-14T13:27:17.467Z,3.58
2023-05-14T13:29:44.278Z,4.07
2023-05-14T13:32:11.084Z,3.30
2023-05-14T13:34:37.977Z,2.65
2023-05-14T13:37:05.065Z,2.35
2023-05-14T13:39:32.235Z,2.13
2023-05-14T13:41:59.061Z,3.65
2023-05-14T13:44:25.962Z,4.63
2023-05-14T13:46:53.103Z,3.17
2023-05-14T13:49:19.992Z,2.97
2023-05-14T13:51:46.985Z,4.38
2023-05-14T13:54:13.787Z,3.72
2023-05-14T13:56:41.318Z,3.88
2023-05-14T13:59:08.354Z,5.72
2023-05-14T14:01:35.192Z,4.10
2023-05-14T14:04:03.254Z,4.88
2023-05-14T14:06:32.223Z,5.10
2023-05-14T14:08:59.097Z,4.93
2023-05-14T14:11:26.268Z,7.88
2023-05-14T14:13:53.516Z,5.65
2023-05-14T14:16:20.314Z,4.85
2023-05-14T14:18:47.203Z,4.32
2023-05-14T14:21:17.846Z,6.05
2023-05-14T14:23:46.606Z,3.58
2023-05-14T14:26:13.484Z,2.13
2023-05-14T14:28:40.546Z,2.17
2023-05-14T14:31:07.755Z,3.75
2023-05-14T14:33:35.906Z,2.60
2023-05-14T14:36:02.810Z,3.85
2023-05-14T14:38:29.670Z,2.35
2023-05-14T14:40:57.653Z,3.55
2023-05-14T14:43:24.672Z,2.30
2023-05-14T14:45:51.597Z,3.75
2023-05-14T14:48:34.208Z,4.03
2023-05-14T14:51:01.589Z,4.72
2023-05-14T14:53:28.446Z,3.58
2023-05-14T14:55:56.002Z,3.85
2023-05-14T14:58:22.961Z,3.92
2023-05-14T15:00:52.748Z,3.35
2023-05-14T15:03:20.871Z,3.55
2023-05-14T15:05:48.373Z,2.75
2023-05-14T15:08:15.680Z,2.90
2023-05-14T15:10:42.673Z,2.70
2023-05-14T15:13:09.625Z,4.32
2023-05-14T15:15:36.641Z,5.53
2023-05-14T15:18:04.377Z,4.07
2023-05-14T15:20:31.212Z,3.00
2023-05-14T15:22:58.081Z,3.28
2023-05-14T15:25:26.533Z,4.03
2023-05-14T15:27:53.471Z,3.20
2023-05-14T15:30:20.410Z,2.90
2023-05-14T15:32:47.180Z,2.65
2023-05-14T15:35:14.071Z,3.97
2023-05-14T15:37:42.652Z,2.40
2023-05-14T15:40:10.918Z,3.42
2023-05-14T15:42:46.998Z,5.07
2023-05-14T15:45:14.365Z,3.28
2023-05-14T15:47:41.675Z,3.28
2023-05-14T15:50:09.210Z,4.60
2023-05-14T15:52:36.476Z,4.38
2023-05-14T15:55:05.058Z,3.90
2023-05-14T15:57:31.919Z,4.72
2023-05-14T15:59:58.725Z,5.38
2023-05-14T16:02:25.800Z,6.13
2023-05-14T16:04:52.674Z,3.38
2023-05-14T16:07:19.476Z,3.38
2023-05-14T16:09:46.746Z,6.25
2023-05-14T16:12:14.318Z,4.43
2023-05-14T16:14:42.186Z,3.30
2023-05-14T16:17:09.317Z,3.47
2023-05-14T16:19:36.179Z,4.35
2023-05-14T16:22:02.994Z,5.47
2023-05-14T16:24:29.941Z,4.32
2023-05-14T16:26:57.080Z,3.63
2023-05-14T16:29:23.875Z,2.97
2023-05-14T16:31:50.909Z,3.15
2023-05-14T16:34:17.687Z,2.88
2023-05-14T16:36:44.512Z,4.32
2023-05-14T16:39:11.565Z,3.35
2023-05-14T16:41:38.370Z,3.55
2023-05-14T16:44:05.177Z,7.68
2023-05-14T16:46:32.358Z,13.48
2023-05-14T16:48:59.972Z,5.40
2023-05-14T16:51:26.729Z,6.07
2023-05-14T16:53:55.462Z,3.92
2023-05-14T16:56:22.747Z,4.03
2023-05-14T16:58:49.897Z,4.18
2023-05-14T17:01:17.039Z,4.28
2023-05-14T17:03:45.566Z,6.65
2023-05-14T17:06:12.385Z,6.45
2023-05-14T17:08:39.187Z,6.32
2023-05-14T17:11:06.211Z,5.95
2023-05-14T17:13:34.100Z,4.82
2023-05-14T17:16:01.151Z,4.55
2023-05-14T17:18:28.502Z,3.85
2023-05-14T17:20:55.444Z,4.75
2023-05-14T17:23:22.298Z,3.30
2023-05-14T17:25:49.053Z,5.35
2023-05-14T17:28:15.815Z,5.15
2023-05-14T17:30:42.644Z,4.43
2023-05-14T17:33:09.538Z,4.78
2023-05-14T17:35:37.280Z,6.20
2023-05-14T17:38:04.250Z,6.13
2023-05-14T17:40:31.131Z,9.82
2023-05-14T17:42:58.061Z,7.72
2023-05-14T17:45:25.352Z,6.47
2023-05-14T17:47:52.670Z,5.07
2023-05-14T17:50:20.187Z,4.13
2023-05-14T17:52:47.639Z,6.25
2023-05-14T17:55:14.645Z,4.65
2023-05-14T17:57:42.139Z,5.60
2023-05-14T18:00:09.470Z,7.18
2023-05-14T18:02:39.773Z,5.32
2023-05-14T18:05:07.240Z,5.38
2023-05-14T18:07:35.494Z,5.32
2023-05-14T18:10:02.740Z,5.20
2023-05-14T18:12:29.668Z,6.13
2023-05-14T18:14:56.435Z,6.55
2023-05-14T18:17:23.256Z,7.38
2023-05-14T18:19:50.088Z,7.07
2023-05-14T18:22:16.847Z,5.93
2023-05-14T18:24:44.414Z,6.35
2023-05-14T18:27:11.406Z,6.30
2023-05-14T18:29:38.321Z,8.18
2023-05-14T18:32:05.839Z,7.05
2023-05-14T18:34:32.603Z,6.93
2023-05-14T18:36:59.446Z,5.82
2023-05-14T18:39:26.196Z,8.00
2023-05-14T18:41:53.047Z,6.88
2023-05-14T18:44:20.109Z,7.20
2023-05-14T18:46:47.014Z,9.82
2023-05-14T18:49:13.913Z,11.25
2023-05-14T18:51:40.972Z,13.95
2023-05-14T18:54:07.726Z,11.65
2023-05-14T18:56:36.832Z,12.35
2023-05-14T18:59:04.333Z,7.32
2023-05-14T19:01:31.432Z,8.57
2023-05-14T19:03:58.496Z,8.60
2023-05-14T19:06:25.703Z,7.82
2023-05-14T19:08:52.453Z,8.63
2023-05-14T19:11:19.671Z,10.20
2023-05-14T19:13:47.838Z,11.27
2023-05-14T19:16:14.771Z,13.00
2023-05-14T19:18:41.737Z,15.43
2023-05-14T19:21:08.794Z,16.95
2023-05-14T19:23:35.646Z,13.93
2023-05-14T19:26:02.449Z,16.40
2023-05-14T19:28:29.288Z,16.63
2023-05-14T19:30:57.286Z,16.50
2023-05-14T19:33:25.880Z,14.35
2023-05-14T19:35:52.769Z,15.43
2023-05-14T19:38:19.772Z,14.77
2023-05-14T19:40:46.702Z,14.88
2023-05-14T19:43:13.607Z,17.35
2023-05-14T19:45:42.631Z,17.77
2023-05-14T19:48:09.521Z,13.88
2023-05-14T19:50:39.757Z,16.52
2023-05-14T19:53:06.501Z,20.42
2023-05-14T19:55:33.468Z,27.60
2023-05-14T19:58:00.376Z,22.58
2023-05-14T20:00:27.465Z,24.02
2023-05-14T20:02:54.644Z,21.20
2023-05-14T20:05:21.609Z,24.10
2023-05-14T20:07:48.966Z,27.05
2023-05-14T20:10:15.849Z,26.55
2023-05-14T20:12:42.852Z,20.88
2023-05-14T20:15:10.091Z,20.88
2023-05-14T20:17:38.479Z,17.30
2023-05-14T20:20:06.880Z,17.25
2023-05-14T20:22:34.049Z,16.15
2023-05-14T20:25:00.834Z,20.15
2023-05-14T20:27:27.696Z,20.50
2023-05-14T20:29:54.444Z,17.95
2023-05-14T20:32:25.000Z,19.35
2023-05-14T20:34:52.059Z,18.48
2023-05-14T20:37:19.816Z,17.83
2023-05-14T20:39:46.839Z,18.58
2023-05-14T20:42:13.595Z,18.08
2023-05-14T20:44:40.346Z,17.42
2023-05-14T20:47:07.231Z,15.18
2023-05-14T20:49:34.318Z,15.13
2023-05-14T20:52:01.504Z,13.93
2023-05-14T20:54:28.223Z,16.88
2023-05-14T20:56:54.945Z,17.38
2023-05-14T20:59:21.762Z,17.67
2023-05-14T21:01:48.636Z,14.07
2023-05-14T21:04:15.583Z,14.00
2023-05-14T21:06:42.662Z,13.07
2023-05-14T21:09:10.675Z,15.45
2023-05-14T21:11:37.624Z,11.82
2023-05-14T21:14:04.742Z,13.18
2023-05-14T21:16:31.832Z,14.32
2023-05-14T21:18:58.770Z,12.75
2023-05-14T21:21:26.075Z,11.45
2023-05-14T21:23:52.935Z,13.13
2023-05-14T21:26:21.866Z,13.80
2023-05-14T21:28:49.065Z,15.25
2023-05-14T21:31:15.906Z,12.13
2023-05-14T21:33:42.766Z,12.10
2023-05-14T21:36:09.803Z,11.02
2023-05-14T21:38:36.797Z,12.77
2023-05-14T21:41:03.638Z,16.13
2023-05-14T21:43:30.548Z,12.85
2023-05-14T21:45:57.631Z,15.15
2023-05-14T21:48:24.478Z,11.45
2023-05-14T21:50:51.420Z,16.35
2023-05-14T21:53:18.242Z,12.95
2023-05-14T21:55:45.188Z,12.60
2023-05-14T21:58:12.080Z,11.85
2023-05-14T22:00:39.256Z,15.45
2023-05-14T22:03:06.146Z,17.90
2023-05-14T22:05:33.433Z,15.70
2023-05-14T22:08:00.313Z,16.05
2023-05-14T22:10:27.067Z,19.20
2023-05-14T22:12:53.840Z,20.15
2023-05-14T22:15:20.866Z,18.35
2023-05-14T22:17:48.126Z,18.20
2023-05-14T22:20:15.019Z,17.55
2023-05-14T22:22:42.073Z,19.42
2023-05-14T22:25:09.576Z,18.42
2023-05-14T22:27:36.350Z,15.82
2023-05-14T22:30:03.627Z,18.25
2023-05-14T22:32:30.421Z,19.10
2023-05-14T22:34:57.243Z,18.42
2023-05-14T22:37:24.097Z,18.92
2023-05-14T22:39:50.869Z,19.65
2023-05-14T22:42:17.797Z,21.92
2023-05-14T22:44:44.572Z,19.98
2023-05-14T22:47:19.239Z,18.77
2023-05-14T22:49:46.724Z,15.32
2023-05-14T22:52:13.473Z,16.42
2023-05-14T22:54:40.274Z,16.17
2023-05-14T22:57:07.158Z,17.00
2023-05-14T22:59:33.926Z,17.38
2023-05-14T23:02:00.783Z,16.52
2023-05-14T23:04:27.588Z,17.30
2023-05-14T23:06:54.489Z,16.70
2023-05-14T23:09:22.482Z,14.75
2023-05-14T23:11:49.332Z,16.70
2023-05-14T23:14:17.910Z,15.48
2023-05-14T23:16:44.923Z,14.20
2023-05-14T23:19:11.951Z,17.73
2023-05-14T23:21:38.806Z,17.45
2023-05-14T23:24:05.956Z,17.83
2023-05-14T23:26:33.050Z,17.33
2023-05-14T23:28:59.814Z,19.35
2023-05-14T23:31:26.671Z,18.17
2023-05-14T23:33:53.503Z,21.75
2023-05-14T23:36:20.514Z,20.65
2023-05-14T23:38:47.407Z,18.30
2023-05-14T23:41:14.174Z,20.70
2023-05-14T23:43:41.009Z,17.50
2023-05-14T23:46:08.812Z,16.88
2023-05-14T23:48:35.862Z,16.88
2023-05-14T23:51:02.640Z,17.50
2023-05-14T23:53:29.447Z,16.52
2023-05-14T23:55:56.526Z,17.60
2023-05-14T23:58:23.413Z,17.70
